Lech, Austria
Current Conditions -  °F | °C
As of 5:50 PM on Thursday 27 Nov 2014 (Local Time) from LSZR Reporting Station
Overcast Overcast  
Wind Chill: 45°   Ceiling: 700
Heat Index: 45°   Visibility: 6mi
Dew Point: 43°   Wind: 2mph
Humidity: 93%   Direction: NA
Pressure: 29.77"   Gusts: NA
Location:  47.21°N, 10.14°E
Report Text: LSZR 271550Z VRB02KT 9999 OVC007 07/06 Q1008 NOSIG RMK K
Loading
Personal Weather Stations






























Interactive Weather Map New forecast layout! Learn more

10-Day Weather Forecast

Advertisements
Track Severe Weather on mobile